createdAt,value
2022-09-14T00:01:28.425Z,4.53
2022-09-14T00:04:00.969Z,4.30
2022-09-14T00:06:29.015Z,4.85
2022-09-14T00:08:58.180Z,5.50
2022-09-14T00:11:27.157Z,4.60
2022-09-14T00:13:54.205Z,4.80
2022-09-14T00:16:24.342Z,5.15
2022-09-14T00:18:56.650Z,5.10
2022-09-14T00:21:24.598Z,4.78
2022-09-14T00:23:51.633Z,4.53
2022-09-14T00:26:21.835Z,4.90
2022-09-14T00:28:54.413Z,5.25
2022-09-14T00:31:21.897Z,5.50
2022-09-14T00:33:50.438Z,5.32
2022-09-14T00:36:19.971Z,5.70
2022-09-14T00:38:47.607Z,5.35
2022-09-14T00:41:18.459Z,5.15
2022-09-14T00:44:06.057Z,5.10
2022-09-14T00:46:44.548Z,4.75
2022-09-14T00:49:17.085Z,6.20
2022-09-14T00:51:52.546Z,6.10
2022-09-14T00:54:19.947Z,5.88
2022-09-14T00:56:48.137Z,6.05
2022-09-14T00:59:19.215Z,6.50
2022-09-14T01:01:46.708Z,7.05
2022-09-14T01:04:13.528Z,5.88
2022-09-14T01:06:45.925Z,5.45
2022-09-14T01:09:41.146Z,5.35
2022-09-14T01:12:17.368Z,5.53
2022-09-14T01:15:22.301Z,6.30
2022-09-14T01:18:08.361Z,5.60
2022-09-14T01:20:51.397Z,4.82
2022-09-14T01:23:36.178Z,5.03
2022-09-14T01:26:30.552Z,5.75
2022-09-14T01:28:57.189Z,6.35
2022-09-14T01:31:41.146Z,5.63
2022-09-14T01:34:16.546Z,5.63
2022-09-14T01:36:49.564Z,5.70
2022-09-14T01:39:18.278Z,6.18
2022-09-14T01:41:47.685Z,5.75
2022-09-14T01:44:23.408Z,5.57
2022-09-14T01:47:09.701Z,5.43
2022-09-14T01:49:44.176Z,5.30
2022-09-14T01:52:18.182Z,5.55
2022-09-14T01:55:09.846Z,5.38
2022-09-14T01:57:42.733Z,5.75
2022-09-14T02:00:13.554Z,5.88
2022-09-14T02:02:46.913Z,5.53
2022-09-14T02:05:28.673Z,5.38
2022-09-14T02:07:56.307Z,5.97
2022-09-14T02:10:24.412Z,6.55
2022-09-14T02:12:52.470Z,5.53
2022-09-14T02:15:20.060Z,5.35
2022-09-14T02:17:47.615Z,5.47
2022-09-14T02:20:22.114Z,5.20
2022-09-14T02:22:51.038Z,5.95
2022-09-14T02:25:19.090Z,6.22
2022-09-14T02:27:47.505Z,5.88
2022-09-14T02:30:15.329Z,5.60
2022-09-14T02:33:10.564Z,5.60
2022-09-14T02:35:51.776Z,5.90
2022-09-14T02:38:44.981Z,6.03
2022-09-14T02:41:42.064Z,6.32
2022-09-14T02:44:08.794Z,6.13
2022-09-14T02:46:35.508Z,5.18
2022-09-14T02:49:31.525Z,5.65
2022-09-14T02:52:25.550Z,6.35
2022-09-14T02:55:20.333Z,5.78
2022-09-14T02:58:01.749Z,5.68
2022-09-14T03:00:31.133Z,5.32
2022-09-14T03:02:58.551Z,5.85
2022-09-14T03:05:25.470Z,6.07
2022-09-14T03:07:52.160Z,5.60
2022-09-14T03:10:19.012Z,4.85
2022-09-14T03:12:45.743Z,5.03
2022-09-14T03:15:12.585Z,5.65
2022-09-14T03:17:39.240Z,5.95
2022-09-14T03:20:06.315Z,5.80
2022-09-14T03:22:33.581Z,5.88
2022-09-14T03:25:00.264Z,5.78
2022-09-14T03:27:26.953Z,4.95
2022-09-14T03:29:53.684Z,5.25
2022-09-14T03:32:20.326Z,6.32
2022-09-14T03:34:46.985Z,5.57
2022-09-14T03:37:13.747Z,6.63
2022-09-14T03:39:40.418Z,6.32
2022-09-14T03:42:07.157Z,6.60
2022-09-14T03:44:34.235Z,6.70
2022-09-14T03:47:00.998Z,6.82
2022-09-14T03:49:27.689Z,7.20
2022-09-14T03:51:57.740Z,8.57
2022-09-14T03:54:26.716Z,8.52
2022-09-14T03:56:54.236Z,9.02
2022-09-14T03:59:21.708Z,9.23
2022-09-14T04:01:48.659Z,8.23
2022-09-14T04:04:16.071Z,8.20
2022-09-14T04:06:42.790Z,8.32
2022-09-14T04:09:09.719Z,9.15
2022-09-14T04:11:36.462Z,9.70
2022-09-14T04:14:04.857Z,8.98
2022-09-14T04:16:32.059Z,9.45
2022-09-14T04:18:58.844Z,11.40
2022-09-14T04:21:26.102Z,9.85
2022-09-14T04:26:41.808Z,9.25
2022-09-14T04:29:10.547Z,10.18
2022-09-14T04:31:37.365Z,9.75
2022-09-14T04:34:04.596Z,11.43
2022-09-14T04:36:31.518Z,9.50
2022-09-14T04:39:03.184Z,9.82
2022-09-14T04:41:31.640Z,9.50
2022-09-14T04:43:59.422Z,10.52
2022-09-14T04:46:32.204Z,11.43
2022-09-14T04:48:59.416Z,8.10
2022-09-14T04:51:29.324Z,8.95
2022-09-14T04:53:59.228Z,8.25
2022-09-14T04:56:27.761Z,9.05
2022-09-14T04:58:58.604Z,9.15
2022-09-14T05:01:28.578Z,9.05
2022-09-14T05:03:56.057Z,7.90
2022-09-14T05:06:25.159Z,9.75
2022-09-14T05:08:52.924Z,9.23
2022-09-14T05:11:22.174Z,9.25
2022-09-14T05:13:50.425Z,8.65
2022-09-14T05:16:18.691Z,9.98
2022-09-14T05:18:46.342Z,9.00
2022-09-14T05:21:16.208Z,9.25
2022-09-14T05:23:43.398Z,9.60
2022-09-14T05:26:10.786Z,8.88
2022-09-14T05:28:37.932Z,10.10
2022-09-14T05:31:10.399Z,10.40
2022-09-14T05:33:37.587Z,10.52
2022-09-14T05:36:06.733Z,9.23
2022-09-14T05:38:35.748Z,9.48
2022-09-14T05:41:02.647Z,10.18
2022-09-14T05:43:29.980Z,10.95
2022-09-14T05:46:00.837Z,10.15
2022-09-14T05:48:27.515Z,10.38
2022-09-14T05:51:22.462Z,10.13
2022-09-14T05:53:50.590Z,9.73
2022-09-14T05:56:19.149Z,10.57
2022-09-14T05:58:46.512Z,10.73
2022-09-14T06:01:27.780Z,9.98
2022-09-14T06:03:56.787Z,10.73
2022-09-14T06:06:24.351Z,9.70
2022-09-14T06:08:53.666Z,9.38
2022-09-14T06:11:23.967Z,10.70
2022-09-14T06:13:51.000Z,9.88
2022-09-14T06:16:20.432Z,9.55
2022-09-14T06:18:48.140Z,10.52
2022-09-14T06:21:17.561Z,10.60
2022-09-14T06:23:45.368Z,9.80
2022-09-14T06:26:12.838Z,9.68
2022-09-14T06:28:39.902Z,9.63
2022-09-14T06:31:09.876Z,10.18
2022-09-14T06:33:37.195Z,11.35
2022-09-14T06:36:09.826Z,9.68
2022-09-14T06:38:36.699Z,9.30
2022-09-14T06:41:06.864Z,9.55
2022-09-14T06:43:35.971Z,9.65
2022-09-14T06:46:02.675Z,9.75
2022-09-14T06:48:31.910Z,9.55
2022-09-14T06:50:58.660Z,9.68
2022-09-14T06:53:25.924Z,9.65
2022-09-14T06:55:53.049Z,8.73
2022-09-14T06:58:19.843Z,9.20
2022-09-14T07:00:46.578Z,8.32
2022-09-14T07:03:13.282Z,9.43
2022-09-14T07:05:40.021Z,9.95
2022-09-14T07:08:11.446Z,14.07
2022-09-14T07:10:39.215Z,13.13
2022-09-14T07:13:05.994Z,8.77
2022-09-14T07:15:33.437Z,9.48
2022-09-14T07:18:00.234Z,10.02
2022-09-14T07:20:26.924Z,8.88
2022-09-14T07:22:53.659Z,7.57
2022-09-14T07:25:20.387Z,7.65
2022-09-14T07:27:47.162Z,9.18
2022-09-14T07:30:13.931Z,7.78
2022-09-14T07:32:40.647Z,7.50
2022-09-14T07:35:08.328Z,7.35
2022-09-14T07:37:35.118Z,8.45
2022-09-14T07:40:02.163Z,8.40
2022-09-14T07:42:28.961Z,7.50
2022-09-14T07:44:55.704Z,7.85
2022-09-14T07:47:22.378Z,7.70
2022-09-14T07:49:49.125Z,7.45
2022-09-14T07:52:15.839Z,7.63
2022-09-14T07:54:42.485Z,7.50
2022-09-14T07:57:09.467Z,10.23
2022-09-14T07:59:37.416Z,15.48
2022-09-14T08:02:08.978Z,8.15
2022-09-14T08:04:36.295Z,9.48
2022-09-14T08:07:03.822Z,10.45
2022-09-14T08:09:30.582Z,8.50
2022-09-14T08:11:57.870Z,9.10
2022-09-14T08:14:24.934Z,8.88
2022-09-14T08:16:52.249Z,8.45
2022-09-14T08:19:20.816Z,10.23
2022-09-14T08:21:48.422Z,9.60
2022-09-14T08:24:18.163Z,7.18
2022-09-14T08:26:45.094Z,8.88
2022-09-14T08:29:16.133Z,8.15
2022-09-14T08:31:45.329Z,7.45
2022-09-14T08:34:12.758Z,7.90
2022-09-14T08:36:41.279Z,7.03
2022-09-14T08:39:10.744Z,8.40
2022-09-14T08:41:56.650Z,7.03
2022-09-14T08:44:39.992Z,7.47
2022-09-14T08:47:28.435Z,6.72
2022-09-14T08:50:01.764Z,7.93
2022-09-14T08:52:36.969Z,8.57
2022-09-14T08:55:33.864Z,7.00
2022-09-14T08:58:18.207Z,7.00
2022-09-14T09:00:54.043Z,6.82
2022-09-14T09:03:27.974Z,8.10
2022-09-14T09:06:22.367Z,7.32
2022-09-14T09:09:07.758Z,6.93
2022-09-14T09:11:43.518Z,8.23
2022-09-14T09:14:19.362Z,9.63
2022-09-14T09:16:50.522Z,8.50
2022-09-14T09:19:30.182Z,7.78
2022-09-14T09:21:59.009Z,7.70
2022-09-14T09:24:40.413Z,7.10
2022-09-14T09:27:12.385Z,7.10
2022-09-14T09:29:41.428Z,6.20
2022-09-14T09:32:12.906Z,7.10
2022-09-14T09:34:39.637Z,6.63
2022-09-14T09:37:11.608Z,5.65
2022-09-14T09:39:38.376Z,6.72
2022-09-14T09:42:12.440Z,6.28
2022-09-14T09:45:03.418Z,6.45
2022-09-14T09:47:32.640Z,6.22
2022-09-14T09:50:01.759Z,7.00
2022-09-14T09:52:30.092Z,6.72
2022-09-14T09:54:58.733Z,7.22
2022-09-14T09:57:32.678Z,7.30
2022-09-14T10:00:13.323Z,6.88
2022-09-14T10:02:41.665Z,7.70
2022-09-14T10:05:11.950Z,6.57
2022-09-14T10:07:59.958Z,7.25
2022-09-14T10:10:47.412Z,6.60
2022-09-14T10:13:38.582Z,6.50
2022-09-14T10:16:14.051Z,5.60
2022-09-14T10:18:49.517Z,5.67
2022-09-14T10:21:21.033Z,5.40
2022-09-14T10:24:21.113Z,4.97
2022-09-14T10:26:47.823Z,4.60
2022-09-14T10:29:44.578Z,4.30
2022-09-14T10:32:22.273Z,4.38
2022-09-14T10:34:51.157Z,4.40
2022-09-14T10:37:25.558Z,4.28
2022-09-14T10:40:17.321Z,4.00
2022-09-14T10:43:28.488Z,4.40
2022-09-14T10:46:02.129Z,4.28
2022-09-14T10:48:45.171Z,3.90
2022-09-14T10:51:14.588Z,4.30
2022-09-14T10:54:03.297Z,3.92
2022-09-14T10:57:07.800Z,3.88
2022-09-14T10:59:49.532Z,3.22
2022-09-14T11:02:42.227Z,4.80
2022-09-14T11:05:14.791Z,4.20
2022-09-14T11:08:24.084Z,3.80
2022-09-14T11:11:14.926Z,3.40
2022-09-14T11:14:09.012Z,4.00
2022-09-14T11:16:57.631Z,3.78
2022-09-14T11:19:27.156Z,4.35
2022-09-14T11:22:15.482Z,4.43
2022-09-14T11:24:57.336Z,3.40
2022-09-14T11:27:41.232Z,3.63
2022-09-14T11:30:14.541Z,3.10
2022-09-14T11:32:48.665Z,3.95
2022-09-14T11:35:20.596Z,3.80
2022-09-14T11:38:10.042Z,3.67
2022-09-14T11:40:43.804Z,4.10
2022-09-14T11:43:22.606Z,3.90
2022-09-14T11:45:53.701Z,4.65
2022-09-14T11:48:43.852Z,4.93
2022-09-14T11:51:17.201Z,3.97
2022-09-14T11:53:44.882Z,4.97
2022-09-14T11:56:26.660Z,5.05
2022-09-14T11:58:56.342Z,5.00
2022-09-14T12:01:39.433Z,4.93
2022-09-14T12:04:08.097Z,3.65
2022-09-14T12:06:37.695Z,4.25
2022-09-14T12:09:25.326Z,4.63
2022-09-14T12:11:53.684Z,5.03
2022-09-14T12:14:27.480Z,4.53
2022-09-14T12:17:39.529Z,4.97
2022-09-14T12:20:29.777Z,3.30
2022-09-14T12:23:27.136Z,3.75
2022-09-14T12:26:14.858Z,4.25
2022-09-14T12:28:48.109Z,3.70
2022-09-14T12:31:30.354Z,3.35
2022-09-14T12:34:18.793Z,3.47
2022-09-14T12:36:45.447Z,3.00
2022-09-14T12:39:25.557Z,2.90
2022-09-14T12:41:52.232Z,3.35
2022-09-14T12:44:33.069Z,2.80
2022-09-14T12:47:25.490Z,3.08
2022-09-14T12:49:57.751Z,2.90
2022-09-14T12:52:46.431Z,3.33
2022-09-14T12:55:45.127Z,3.42
2022-09-14T12:58:41.483Z,3.30
2022-09-14T13:01:29.310Z,2.90
2022-09-14T13:03:58.134Z,2.78
2022-09-14T13:06:44.118Z,3.35
2022-09-14T13:09:21.891Z,2.75
2022-09-14T13:11:55.780Z,2.70
2022-09-14T13:14:26.206Z,3.08
2022-09-14T13:16:55.699Z,2.50
2022-09-14T13:19:31.711Z,3.15
2022-09-14T13:24:30.967Z,2.53
2022-09-14T13:27:00.907Z,2.22
2022-09-14T13:29:29.532Z,2.75
2022-09-14T13:32:03.015Z,2.92
2022-09-14T13:34:33.894Z,2.83
2022-09-14T13:37:01.756Z,3.05
2022-09-14T13:39:33.093Z,3.33
2022-09-14T13:42:00.147Z,2.97
2022-09-14T13:44:37.013Z,2.40
2022-09-14T13:47:05.963Z,2.42
2022-09-14T13:49:35.379Z,2.28
2022-09-14T13:52:43.039Z,2.97
2022-09-14T13:55:32.984Z,3.50
2022-09-14T13:58:13.208Z,3.53
2022-09-14T14:00:58.513Z,5.40
2022-09-14T14:03:33.337Z,4.40
2022-09-14T14:06:05.354Z,3.95
2022-09-14T14:08:36.158Z,4.18
2022-09-14T14:11:05.737Z,4.38
2022-09-14T14:13:35.208Z,3.35
2022-09-14T14:16:23.996Z,3.80
2022-09-14T14:18:54.805Z,3.75
2022-09-14T14:21:30.126Z,3.13
2022-09-14T14:24:19.484Z,3.67
2022-09-14T14:26:55.467Z,4.18
2022-09-14T14:31:50.015Z,4.85
2022-09-14T14:34:25.905Z,3.80
2022-09-14T14:36:53.124Z,3.40
2022-09-14T14:39:25.217Z,4.18
2022-09-14T14:41:52.536Z,4.13
2022-09-14T14:44:26.144Z,4.03
2022-09-14T14:46:52.935Z,3.92
2022-09-14T14:49:20.607Z,4.47
2022-09-14T14:51:48.151Z,4.97
2022-09-14T14:54:18.064Z,4.45
2022-09-14T14:56:46.621Z,4.32
2022-09-14T14:59:19.482Z,3.75
2022-09-14T15:01:47.054Z,4.38
2022-09-14T15:04:14.452Z,3.75
2022-09-14T15:06:41.457Z,4.70
2022-09-14T15:09:22.191Z,4.22
2022-09-14T15:11:50.496Z,3.88
2022-09-14T15:14:21.334Z,4.05
2022-09-14T15:16:50.884Z,5.22
2022-09-14T15:19:17.775Z,6.80
2022-09-14T15:21:44.443Z,5.00
2022-09-14T15:24:11.923Z,5.88
2022-09-14T15:26:38.665Z,4.82
2022-09-14T15:29:05.576Z,6.90
2022-09-14T15:31:33.036Z,5.35
2022-09-14T15:34:00.160Z,7.82
2022-09-14T15:36:52.131Z,6.30
2022-09-14T15:39:24.409Z,6.82
2022-09-14T15:41:51.578Z,6.63
2022-09-14T15:44:18.683Z,6.70
2022-09-14T15:46:46.992Z,7.32
2022-09-14T15:49:19.912Z,8.23
2022-09-14T15:51:48.671Z,7.80
2022-09-14T15:54:15.757Z,14.48
2022-09-14T15:56:42.541Z,12.50
2022-09-14T15:59:09.244Z,11.45
2022-09-14T16:01:36.550Z,10.55
2022-09-14T16:04:09.540Z,9.68
2022-09-14T16:06:38.523Z,10.15
2022-09-14T16:09:08.804Z,9.93
2022-09-14T16:11:36.386Z,9.30
2022-09-14T16:14:05.473Z,11.25
2022-09-14T16:16:33.527Z,9.00
2022-09-14T16:19:26.610Z,9.32
2022-09-14T16:21:53.891Z,9.98
2022-09-14T16:24:22.283Z,9.95
2022-09-14T16:26:49.356Z,9.70
2022-09-14T16:29:17.672Z,9.63
2022-09-14T16:31:46.801Z,8.82
2022-09-14T16:34:19.998Z,8.35
2022-09-14T16:36:47.644Z,9.05
2022-09-14T16:39:17.501Z,8.48
2022-09-14T16:41:44.740Z,10.52
2022-09-14T16:44:15.258Z,9.35
2022-09-14T16:46:42.254Z,9.25
2022-09-14T16:49:10.252Z,7.90
2022-09-14T16:51:37.519Z,9.02
2022-09-14T16:54:04.458Z,9.50
2022-09-14T16:56:34.002Z,9.55
2022-09-14T16:59:02.023Z,9.52
2022-09-14T17:01:37.561Z,8.13
2022-09-14T17:04:10.967Z,9.43
2022-09-14T17:06:39.981Z,7.53
2022-09-14T17:09:13.106Z,7.45
2022-09-14T17:11:41.518Z,5.65
2022-09-14T17:14:09.469Z,5.72
2022-09-14T17:16:36.507Z,3.58
2022-09-14T17:19:04.817Z,4.00
2022-09-14T17:21:37.956Z,2.75
2022-09-14T17:24:05.685Z,3.30
2022-09-14T17:26:33.231Z,2.72
2022-09-14T17:29:01.232Z,2.53
2022-09-14T17:31:31.405Z,2.25
2022-09-14T17:34:00.334Z,3.72
2022-09-14T17:36:27.804Z,2.88
2022-09-14T17:38:57.932Z,2.30
2022-09-14T17:41:28.015Z,1.73
2022-09-14T17:43:57.085Z,2.30
2022-09-14T17:46:25.120Z,2.10
2022-09-14T17:48:52.550Z,2.20
2022-09-14T17:51:23.180Z,1.67
2022-09-14T17:53:52.276Z,2.10
2022-09-14T17:56:21.404Z,2.20
2022-09-14T17:58:50.023Z,2.60
2022-09-14T18:01:23.394Z,2.00
2022-09-14T18:03:54.153Z,2.70
2022-09-14T18:06:23.910Z,2.65
2022-09-14T18:08:56.212Z,3.28
2022-09-14T18:11:23.901Z,2.33
2022-09-14T18:13:51.295Z,2.13
2022-09-14T18:16:19.893Z,2.50
2022-09-14T18:18:47.504Z,3.30
2022-09-14T18:21:16.795Z,2.85
2022-09-14T18:23:43.954Z,3.00
2022-09-14T18:26:10.943Z,7.22
2022-09-14T18:28:37.611Z,4.50
2022-09-14T18:31:07.899Z,5.53
2022-09-14T18:33:35.652Z,2.88
2022-09-14T18:36:03.616Z,2.40
2022-09-14T18:38:31.829Z,2.55
2022-09-14T18:41:06.185Z,2.22
2022-09-14T18:43:33.611Z,2.65
2022-09-14T18:46:00.661Z,2.55
2022-09-14T18:48:27.361Z,1.83
2022-09-14T18:50:54.208Z,2.60
2022-09-14T18:53:20.972Z,3.40
2022-09-14T18:55:47.804Z,2.78
2022-09-14T18:58:14.614Z,2.22
2022-09-14T19:00:47.494Z,2.65
2022-09-14T19:03:14.311Z,2.30
2022-09-14T19:05:42.849Z,1.92
2022-09-14T19:08:10.148Z,1.90
2022-09-14T19:10:38.235Z,2.38
2022-09-14T19:13:06.513Z,1.92
2022-09-14T19:15:33.471Z,2.00
2022-09-14T19:18:00.389Z,1.70
2022-09-14T19:20:38.116Z,2.50
2022-09-14T19:23:10.196Z,2.50
2022-09-14T19:25:41.950Z,2.50
2022-09-14T19:28:08.937Z,2.30
2022-09-14T19:30:40.013Z,2.28
2022-09-14T19:33:06.972Z,2.60
2022-09-14T19:35:33.859Z,2.30
2022-09-14T19:38:00.660Z,2.65
2022-09-14T19:40:27.904Z,1.90
2022-09-14T19:42:54.714Z,2.13
2022-09-14T19:45:21.429Z,2.40
2022-09-14T19:47:48.122Z,2.10
2022-09-14T19:50:14.961Z,2.42
2022-09-14T19:52:41.732Z,2.63
2022-09-14T19:55:08.886Z,2.80
2022-09-14T19:57:37.423Z,2.28
2022-09-14T20:00:07.973Z,3.20
2022-09-14T20:02:34.824Z,2.35
2022-09-14T20:05:01.700Z,2.47
2022-09-14T20:07:28.580Z,2.60
2022-09-14T20:09:55.258Z,2.92
2022-09-14T20:12:21.983Z,2.90
2022-09-14T20:14:48.672Z,3.40
2022-09-14T20:17:15.367Z,3.25
2022-09-14T20:19:42.535Z,2.83
2022-09-14T20:22:11.636Z,3.53
2022-09-14T20:24:41.013Z,3.90
2022-09-14T20:27:07.772Z,2.45
2022-09-14T20:29:35.389Z,2.47
2022-09-14T20:32:04.038Z,2.40
2022-09-14T20:34:31.245Z,2.90
2022-09-14T20:37:00.340Z,2.35
2022-09-14T20:39:27.967Z,2.42
2022-09-14T20:41:54.757Z,2.53
2022-09-14T20:44:23.066Z,2.33
2022-09-14T20:46:51.141Z,2.45
2022-09-14T20:49:20.804Z,2.70
2022-09-14T20:51:47.708Z,2.22
2022-09-14T20:54:16.109Z,3.20
2022-09-14T20:56:44.094Z,2.90
2022-09-14T20:59:13.808Z,3.08
2022-09-14T21:01:42.686Z,2.55
2022-09-14T21:04:13.272Z,2.83
2022-09-14T21:06:42.971Z,2.50
2022-09-14T21:09:11.324Z,2.67
2022-09-14T21:11:39.066Z,2.47
2022-09-14T21:14:06.796Z,4.03
2022-09-14T21:16:42.680Z,2.83
2022-09-14T21:19:21.209Z,2.95
2022-09-14T21:21:49.159Z,2.55
2022-09-14T21:24:17.463Z,2.40
2022-09-14T21:26:45.100Z,2.40
2022-09-14T21:29:15.978Z,2.97
2022-09-14T21:31:42.913Z,3.33
2022-09-14T21:34:11.359Z,4.22
2022-09-14T21:36:43.631Z,3.95
2022-09-14T21:39:22.246Z,3.33
2022-09-14T21:41:54.528Z,2.97
2022-09-14T21:44:31.705Z,3.45
2022-09-14T21:46:58.644Z,3.40
2022-09-14T21:49:25.365Z,3.33
2022-09-14T21:51:52.270Z,2.83
2022-09-14T21:54:19.104Z,3.45
2022-09-14T21:56:46.691Z,3.63
2022-09-14T21:59:16.725Z,3.00
2022-09-14T22:01:43.938Z,3.13
2022-09-14T22:04:15.511Z,3.35
2022-09-14T22:06:42.750Z,3.13
2022-09-14T22:09:09.432Z,3.00
2022-09-14T22:11:37.792Z,3.78
2022-09-14T22:14:14.934Z,4.93
2022-09-14T22:16:42.389Z,3.58
2022-09-14T22:19:20.632Z,3.33
2022-09-14T22:21:48.160Z,3.42
2022-09-14T22:24:18.516Z,3.40
2022-09-14T22:26:46.469Z,3.10
2022-09-14T22:29:14.492Z,3.00
2022-09-14T22:31:43.094Z,3.13
2022-09-14T22:34:10.249Z,2.90
2022-09-14T22:36:37.385Z,2.92
2022-09-14T22:39:05.017Z,2.78
2022-09-14T22:41:32.016Z,2.50
2022-09-14T22:43:58.668Z,3.63
2022-09-14T22:46:29.412Z,3.25
2022-09-14T22:48:56.362Z,3.00
2022-09-14T22:51:25.700Z,2.80
2022-09-14T22:53:52.907Z,3.38
2022-09-14T22:56:28.450Z,3.00
2022-09-14T22:58:55.947Z,2.72
2022-09-14T23:01:25.876Z,2.72
2022-09-14T23:04:07.416Z,2.95
2022-09-14T23:06:37.788Z,2.60
2022-09-14T23:09:06.327Z,2.97
2022-09-14T23:11:33.447Z,2.53
2022-09-14T23:14:00.158Z,2.58
2022-09-14T23:16:29.462Z,2.75
2022-09-14T23:19:02.468Z,2.65
2022-09-14T23:21:31.037Z,2.50
2022-09-14T23:24:02.112Z,2.78
2022-09-14T23:26:29.999Z,2.72
2022-09-14T23:29:09.372Z,3.03
2022-09-14T23:31:36.284Z,2.38
2022-09-14T23:34:04.944Z,2.13
2022-09-14T23:36:32.233Z,2.72
2022-09-14T23:38:59.083Z,2.47
2022-09-14T23:41:27.026Z,2.50
2022-09-14T23:43:54.065Z,2.30
2022-09-14T23:46:21.400Z,2.88
2022-09-14T23:48:48.672Z,2.42
2022-09-14T23:51:15.575Z,2.47
2022-09-14T23:53:43.143Z,2.17
2022-09-14T23:56:10.696Z,2.38
2022-09-14T23:58:37.663Z,2.55
